createdAt,value
2022-11-01T00:01:12.067Z,97737.34
2022-11-01T00:03:14.815Z,97730.41
2022-11-01T00:05:17.510Z,97729.00
2022-11-01T00:07:20.090Z,97730.63
2022-11-01T00:09:23.063Z,97729.81
2022-11-01T00:11:25.690Z,97737.91
2022-11-01T00:13:28.308Z,97739.31
2022-11-01T00:15:30.899Z,97729.00
2022-11-01T00:17:33.502Z,97735.72
2022-11-01T00:19:36.101Z,97736.84
2022-11-01T00:21:39.033Z,97739.03
2022-11-01T00:23:42.096Z,97740.94
2022-11-01T00:25:44.996Z,97742.53
2022-11-01T00:27:47.672Z,97744.94
2022-11-01T00:29:50.245Z,97741.44
2022-11-01T00:31:53.107Z,97737.13
2022-11-01T00:33:56.161Z,97737.72
2022-11-01T00:36:02.026Z,97742.81
2022-11-01T00:38:06.271Z,97741.03
2022-11-01T00:40:09.434Z,97736.94
2022-11-01T00:42:12.057Z,97753.06
2022-11-01T00:44:14.611Z,97743.81
2022-11-01T00:46:17.545Z,97751.94
2022-11-01T00:48:20.247Z,97747.31
2022-11-01T00:50:23.012Z,97748.94
2022-11-01T00:52:25.682Z,97758.63
2022-11-01T00:54:28.594Z,97757.84
2022-11-01T00:56:31.300Z,97752.94
2022-11-01T00:58:34.572Z,97757.22
2022-11-01T01:00:37.791Z,97755.34
2022-11-01T01:02:41.073Z,97752.34
2022-11-01T01:04:43.821Z,97760.44
2022-11-01T01:06:46.456Z,97763.16
2022-11-01T01:08:49.077Z,97760.16
2022-11-01T01:10:52.153Z,97764.25
2022-11-01T01:12:54.814Z,97770.16
2022-11-01T01:14:57.441Z,97771.25
2022-11-01T01:17:00.080Z,97764.88
2022-11-01T01:19:02.824Z,97765.66
2022-11-01T01:21:06.503Z,97772.38
2022-11-01T01:23:09.316Z,97770.56
2022-11-01T01:25:12.804Z,97772.97
2022-11-01T01:27:16.661Z,97770.56
2022-11-01T01:29:19.323Z,97770.28
2022-11-01T01:31:22.016Z,97775.69
2022-11-01T01:33:24.697Z,97770.28
2022-11-01T01:35:27.476Z,97769.78
2022-11-01T01:37:30.151Z,97771.88
2022-11-01T01:39:32.734Z,97768.03
2022-11-01T01:41:54.569Z,97772.66
2022-11-01T01:43:57.149Z,97777.78
2022-11-01T01:45:59.713Z,97777.56
2022-11-01T01:48:08.200Z,97786.78
2022-11-01T01:50:19.646Z,97779.47
2022-11-01T01:52:23.433Z,97785.88
2022-11-01T01:54:26.712Z,97778.56
2022-11-01T01:56:36.299Z,97785.56
2022-11-01T01:58:47.217Z,97779.38
2022-11-01T02:00:50.500Z,97774.47
2022-11-01T02:02:53.361Z,97788.78
2022-11-01T02:05:00.922Z,97783.09
2022-11-01T02:07:04.021Z,97781.50
2022-11-01T02:09:08.475Z,97774.47
2022-11-01T02:11:12.237Z,97774.06
2022-11-01T02:13:15.616Z,97776.09
2022-11-01T02:15:23.547Z,97778.78
2022-11-01T02:18:09.708Z,97778.28
2022-11-01T02:20:27.428Z,97778.88
2022-11-01T02:23:07.790Z,97781.66
2022-11-01T02:25:44.526Z,97785.09
2022-11-01T02:28:20.628Z,97783.19
2022-11-01T02:30:24.989Z,97787.47
2022-11-01T02:32:45.971Z,97783.78
2022-11-01T02:34:59.269Z,97785.66
2022-11-01T02:37:15.152Z,97778.78
2022-11-01T02:39:24.015Z,97790.09
2022-11-01T02:41:49.506Z,97797.09
2022-11-01T02:44:05.168Z,97792.47
2022-11-01T02:46:28.551Z,97797.59
2022-11-01T02:48:31.328Z,97798.28
2022-11-01T02:50:47.779Z,97797.78
2022-11-01T02:52:50.966Z,97797.00
2022-11-01T02:54:57.591Z,97802.63
2022-11-01T02:57:33.206Z,97794.69
2022-11-01T02:59:47.781Z,97802.81
2022-11-01T03:02:15.815Z,97803.91
2022-11-01T03:04:18.713Z,97814.31
2022-11-01T03:06:33.250Z,97812.53
2022-11-01T03:08:44.575Z,97800.97
2022-11-01T03:11:05.720Z,97817.81
2022-11-01T03:13:56.644Z,97824.03
2022-11-01T03:16:18.261Z,97831.84
2022-11-01T03:18:29.465Z,97829.56
2022-11-01T03:20:49.244Z,97819.81
2022-11-01T03:22:59.997Z,97822.53
2022-11-01T03:25:43.234Z,97826.34
2022-11-01T03:27:47.579Z,97830.63
2022-11-01T03:29:58.512Z,97829.94
2022-11-01T03:32:03.252Z,97836.47
2022-11-01T03:34:11.453Z,97833.44
2022-11-01T03:36:20.299Z,97838.56
2022-11-01T03:38:29.274Z,97842.28
2022-11-01T03:40:33.445Z,97843.56
2022-11-01T03:42:38.431Z,97848.97
2022-11-01T03:44:47.397Z,97850.28
2022-11-01T03:46:50.919Z,97849.78
2022-11-01T03:48:53.622Z,97854.41
2022-11-01T03:50:56.573Z,97848.75
2022-11-01T03:52:59.236Z,97854.56
2022-11-01T03:55:18.268Z,97853.50
2022-11-01T03:57:21.098Z,97847.78
2022-11-01T03:59:23.883Z,97853.50
2022-11-01T04:01:26.758Z,97856.38
2022-11-01T04:03:29.469Z,97859.31
2022-11-01T04:05:33.714Z,97861.69
2022-11-01T04:07:36.486Z,97845.97
2022-11-01T04:09:39.047Z,97846.47
2022-11-01T04:11:41.656Z,97856.69
2022-11-01T04:13:44.449Z,97847.19
2022-11-01T04:16:05.765Z,97847.38
2022-11-01T04:18:37.003Z,97849.69
2022-11-01T04:20:39.921Z,97846.47
2022-11-01T04:22:42.541Z,97864.31
2022-11-01T04:24:45.158Z,97859.72
2022-11-01T04:26:48.191Z,97862.09
2022-11-01T04:28:59.930Z,97858.19
2022-11-01T04:31:02.590Z,97858.00
2022-11-01T04:33:05.432Z,97863.44
2022-11-01T04:37:15.662Z,97868.34
2022-11-01T04:39:18.456Z,97867.50
2022-11-01T04:41:22.702Z,97870.13
2022-11-01T04:43:25.271Z,97876.03
2022-11-01T04:45:28.261Z,97876.34
2022-11-01T04:47:30.820Z,97868.72
2022-11-01T04:49:33.381Z,97877.94
2022-11-01T04:51:36.154Z,97868.13
2022-11-01T04:53:39.178Z,97858.41
2022-11-01T04:55:41.847Z,97877.53
2022-11-01T04:57:44.898Z,97876.72
2022-11-01T04:59:47.545Z,97876.22
2022-11-01T05:01:50.265Z,97882.16
2022-11-01T05:03:53.065Z,97881.63
2022-11-01T05:05:55.660Z,97883.25
2022-11-01T05:08:05.335Z,97878.53
2022-11-01T05:10:08.926Z,97880.84
2022-11-01T05:12:11.618Z,97875.03
2022-11-01T05:14:14.263Z,97873.81
2022-11-01T05:16:20.407Z,97875.63
2022-11-01T05:18:23.450Z,97880.75
2022-11-01T05:20:26.113Z,97879.06
2022-11-01T05:22:28.885Z,97869.53
2022-11-01T05:24:31.619Z,97873.63
2022-11-01T05:26:34.685Z,97876.34
2022-11-01T05:28:37.406Z,97876.03
2022-11-01T05:30:41.237Z,97874.31
2022-11-01T05:32:43.920Z,97877.13
2022-11-01T05:34:47.108Z,97871.63
2022-11-01T05:36:49.674Z,97870.31
2022-11-01T05:38:56.413Z,97870.44
2022-11-01T05:41:02.637Z,97876.25
2022-11-01T05:43:05.341Z,97874.22
2022-11-01T05:45:10.227Z,97868.53
2022-11-01T05:47:17.103Z,97866.31
2022-11-01T05:49:20.116Z,97873.94
2022-11-01T05:51:23.300Z,97870.31
2022-11-01T05:53:25.967Z,97869.75
2022-11-01T05:55:28.504Z,97872.94
2022-11-01T05:57:33.545Z,97872.53
2022-11-01T05:59:36.537Z,97869.09
2022-11-01T06:01:39.418Z,97869.81
2022-11-01T06:03:42.076Z,97875.81
2022-11-01T06:05:44.746Z,97873.81
2022-11-01T06:07:47.353Z,97877.19
2022-11-01T06:09:49.921Z,97868.41
2022-11-01T06:11:52.591Z,97871.75
2022-11-01T06:13:59.244Z,97870.19
2022-11-01T06:16:04.447Z,97868.88
2022-11-01T06:18:07.714Z,97878.28
2022-11-01T06:20:11.503Z,97873.91
2022-11-01T06:22:14.303Z,97878.00
2022-11-01T06:24:17.003Z,97882.59
2022-11-01T06:26:19.644Z,97879.41
2022-11-01T06:28:22.240Z,97887.13
2022-11-01T06:30:25.009Z,97885.91
2022-11-01T06:32:27.591Z,97893.13
2022-11-01T06:34:30.152Z,97886.34
2022-11-01T06:36:32.803Z,97873.19
2022-11-01T06:38:35.728Z,97886.22
2022-11-01T06:40:38.387Z,97888.94
2022-11-01T06:42:46.620Z,97891.63
2022-11-01T06:44:49.665Z,97882.41
2022-11-01T06:46:55.131Z,97896.28
2022-11-01T06:48:57.836Z,97889.84
2022-11-01T06:51:03.543Z,97889.75
2022-11-01T06:53:06.160Z,97892.47
2022-11-01T06:55:08.961Z,97884.84
2022-11-01T06:57:11.555Z,97883.84
2022-11-01T06:59:16.610Z,97879.31
2022-11-01T07:01:21.949Z,97882.94
2022-11-01T07:03:24.819Z,97889.97
2022-11-01T07:05:31.508Z,97885.25
2022-11-01T07:07:37.146Z,97882.03
2022-11-01T07:09:39.752Z,97887.06
2022-11-01T07:11:42.350Z,97887.06
2022-11-01T07:13:45.086Z,97891.06
2022-11-01T07:15:47.734Z,97889.38
2022-11-01T07:17:50.335Z,97887.16
2022-11-01T07:19:53.082Z,97890.06
2022-11-01T07:21:55.746Z,97897.69
2022-11-01T07:23:58.334Z,97895.69
2022-11-01T07:26:01.221Z,97895.56
2022-11-01T07:28:03.992Z,97896.88
2022-11-01T07:30:07.740Z,97901.69
2022-11-01T07:32:10.458Z,97905.47
2022-11-01T07:34:13.072Z,97903.97
2022-11-01T07:36:15.828Z,97909.09
2022-11-01T07:38:19.214Z,97903.56
2022-11-01T07:40:27.913Z,97907.56
2022-11-01T07:42:30.855Z,97918.66
2022-11-01T07:44:33.632Z,97915.03
2022-11-01T07:46:36.392Z,97918.41
2022-11-01T07:48:39.548Z,97915.84
2022-11-01T07:50:43.688Z,97916.22
2022-11-01T07:52:46.534Z,97917.59
2022-11-01T07:54:49.161Z,97914.34
2022-11-01T07:56:51.812Z,97914.09
2022-11-01T07:58:54.439Z,97919.91
2022-11-01T08:00:57.336Z,97917.00
2022-11-01T08:03:02.324Z,97920.31
2022-11-01T08:05:06.041Z,97914.84
2022-11-01T08:07:08.831Z,97924.25
2022-11-01T08:09:11.476Z,97928.75
2022-11-01T08:11:14.245Z,97926.28
2022-11-01T08:13:21.600Z,97920.50
2022-11-01T08:15:24.532Z,97926.72
2022-11-01T08:17:27.281Z,97925.44
2022-11-01T08:19:29.958Z,97931.19
2022-11-01T08:21:32.709Z,97921.00
2022-11-01T08:23:35.417Z,97928.88
2022-11-01T08:25:38.221Z,97930.56
2022-11-01T08:27:41.116Z,97925.91
2022-11-01T08:29:44.243Z,97931.34
2022-11-01T08:31:47.764Z,97940.53
2022-11-01T08:33:51.186Z,97940.22
2022-11-01T08:35:53.898Z,97941.81
2022-11-01T08:37:58.757Z,97932.38
2022-11-01T08:40:01.435Z,97937.63
2022-11-01T08:42:05.945Z,97937.34
2022-11-01T08:44:08.721Z,97931.03
2022-11-01T08:46:11.365Z,97940.88
2022-11-01T08:48:14.255Z,97933.22
2022-11-01T08:50:18.157Z,97933.56
2022-11-01T08:52:20.850Z,97928.19
2022-11-01T08:54:23.659Z,97938.47
2022-11-01T08:56:27.676Z,97945.91
2022-11-01T08:58:30.343Z,97940.66
2022-11-01T09:00:33.153Z,97943.31
2022-11-01T09:02:36.212Z,97945.66
2022-11-01T09:04:38.953Z,97948.72
2022-11-01T09:06:41.654Z,97942.19
2022-11-01T09:08:44.347Z,97939.41
2022-11-01T09:10:47.010Z,97942.25
2022-11-01T09:12:49.633Z,97939.34
2022-11-01T09:14:52.850Z,97936.34
2022-11-01T09:16:55.441Z,97934.84
2022-11-01T09:19:01.820Z,97939.22
2022-11-01T09:21:04.790Z,97939.03
2022-11-01T09:23:07.410Z,97939.78
2022-11-01T09:25:10.815Z,97944.59
2022-11-01T09:27:14.009Z,97945.84
2022-11-01T09:29:19.172Z,97953.25
2022-11-01T09:31:22.076Z,97954.00
2022-11-01T09:33:25.579Z,97954.88
2022-11-01T09:35:30.119Z,97950.34
2022-11-01T09:37:33.152Z,97956.53
2022-11-01T09:39:36.047Z,97956.16
2022-11-01T09:41:45.672Z,97961.53
2022-11-01T09:43:50.534Z,97959.75
2022-11-01T09:45:56.231Z,97956.91
2022-11-01T09:48:02.771Z,97955.88
2022-11-01T09:50:12.837Z,97962.16
2022-11-01T09:52:25.242Z,97957.88
2022-11-01T09:54:29.107Z,97949.66
2022-11-01T09:56:51.510Z,97952.81
2022-11-01T09:59:06.514Z,97954.44
2022-11-01T10:01:27.642Z,97951.91
2022-11-01T10:03:49.937Z,97944.66
2022-11-01T10:06:01.250Z,97962.75
2022-11-01T10:08:16.890Z,97952.47
2022-11-01T10:10:36.792Z,97954.81
2022-11-01T10:13:00.919Z,97961.72
2022-11-01T10:15:34.343Z,97950.50
2022-11-01T10:17:52.343Z,97957.53
2022-11-01T10:19:56.380Z,97958.91
2022-11-01T10:22:05.784Z,97956.81
2022-11-01T10:24:22.894Z,97956.06
2022-11-01T10:26:30.709Z,97963.91
2022-11-01T10:28:44.952Z,97961.38
2022-11-01T10:30:54.461Z,97970.13
2022-11-01T10:33:02.996Z,97971.16
2022-11-01T10:35:31.592Z,97974.03
2022-11-01T10:37:47.520Z,97974.16
2022-11-01T10:40:11.519Z,97976.97
2022-11-01T10:42:17.633Z,97979.69
2022-11-01T10:44:34.868Z,97979.56
2022-11-01T10:46:42.573Z,97985.50
2022-11-01T10:48:54.988Z,97974.47
2022-11-01T10:51:01.468Z,97982.09
2022-11-01T10:53:13.454Z,97983.00
2022-11-01T10:55:36.149Z,97986.72
2022-11-01T10:57:45.819Z,97983.69
2022-11-01T10:59:48.745Z,97989.03
2022-11-01T11:01:53.309Z,97987.63
2022-11-01T11:04:01.419Z,97981.59
2022-11-01T11:06:09.285Z,97991.63
2022-11-01T11:08:17.869Z,97985.72
2022-11-01T11:10:24.981Z,97982.59
2022-11-01T11:12:30.135Z,97973.56
2022-11-01T11:14:35.035Z,97972.56
2022-11-01T11:16:54.858Z,97980.69
2022-11-01T11:19:05.290Z,97979.38
2022-11-01T11:21:14.144Z,97984.31
2022-11-01T11:23:21.740Z,97995.94
2022-11-01T11:25:36.417Z,97983.69
2022-11-01T11:27:47.588Z,97984.91
2022-11-01T11:29:55.995Z,97986.41
2022-11-01T11:32:00.748Z,97993.50
2022-11-01T11:34:42.437Z,97991.88
2022-11-01T11:36:49.959Z,97993.28
2022-11-01T11:38:55.198Z,97990.19
2022-11-01T11:40:57.835Z,97995.72
2022-11-01T11:43:19.093Z,97987.09
2022-11-01T11:45:29.718Z,97990.00
2022-11-01T11:47:37.113Z,97986.41
2022-11-01T11:49:40.173Z,97985.59
2022-11-01T11:51:46.528Z,97992.59
2022-11-01T11:54:11.317Z,97984.69
2022-11-01T11:56:14.114Z,97983.66
2022-11-01T11:58:26.226Z,97987.94
2022-11-01T12:00:30.418Z,97977.03
2022-11-01T12:02:34.897Z,97981.25
2022-11-01T12:04:52.060Z,97988.19
2022-11-01T12:06:54.954Z,97987.69
2022-11-01T12:09:00.941Z,97974.06
2022-11-01T12:11:05.268Z,97987.97
2022-11-01T12:13:28.978Z,97999.09
2022-11-01T12:15:41.278Z,97994.59
2022-11-01T12:17:46.597Z,97993.59
2022-11-01T12:19:49.199Z,98005.88
2022-11-01T12:21:53.050Z,98001.47
2022-11-01T12:24:05.021Z,98001.47
2022-11-01T12:26:15.551Z,98002.69
2022-11-01T12:28:24.853Z,98001.94
2022-11-01T12:30:32.287Z,98004.63
2022-11-01T12:32:48.670Z,98000.22
2022-11-01T12:34:54.850Z,98006.44
2022-11-01T12:37:00.418Z,98012.44
2022-11-01T12:39:24.575Z,98003.69
2022-11-01T12:41:32.301Z,98011.41
2022-11-01T12:43:42.332Z,98014.50
2022-11-01T12:45:47.642Z,98016.63
2022-11-01T12:48:07.985Z,98012.31
2022-11-01T12:50:22.071Z,98018.16
2022-11-01T12:52:42.701Z,98015.72
2022-11-01T12:54:55.238Z,98014.53
2022-11-01T12:56:58.592Z,98034.28
2022-11-01T12:59:01.432Z,98009.28
2022-11-01T13:01:19.413Z,98013.53
2022-11-01T13:03:50.930Z,98006.78
2022-11-01T13:06:24.597Z,98007.38
2022-11-01T13:08:34.867Z,98003.44
2022-11-01T13:10:44.207Z,98006.78
2022-11-01T13:13:13.895Z,98006.28
2022-11-01T13:15:39.667Z,98008.47
2022-11-01T13:18:18.817Z,98001.00
2022-11-01T13:20:22.267Z,97996.41
2022-11-01T13:22:52.051Z,97998.22
2022-11-01T13:25:20.236Z,97989.69
2022-11-01T13:27:43.610Z,97998.81
2022-11-01T13:29:57.157Z,97999.41
2022-11-01T13:32:07.578Z,98004.81
2022-11-01T13:34:33.588Z,97999.69
2022-11-01T13:37:21.905Z,98006.38
2022-11-01T13:39:30.136Z,97999.13
2022-11-01T13:41:57.319Z,98006.72
2022-11-01T13:44:09.645Z,97987.31
2022-11-01T13:46:24.098Z,97996.28
2022-11-01T13:49:07.946Z,98009.75
2022-11-01T13:51:31.404Z,97992.22
2022-11-01T13:53:53.804Z,97997.31
2022-11-01T13:56:18.157Z,97997.03
2022-11-01T13:58:23.552Z,98004.09
2022-11-01T14:00:56.487Z,98008.44
2022-11-01T14:02:59.437Z,97998.25
2022-11-01T14:05:12.887Z,97993.94
2022-11-01T14:07:17.031Z,97993.97
2022-11-01T14:09:26.005Z,98017.78
2022-11-01T14:12:11.527Z,98010.22
2022-11-01T14:14:40.338Z,98006.16
2022-11-01T14:16:42.941Z,98012.94
2022-11-01T14:19:19.154Z,98019.09
2022-11-01T14:21:39.889Z,98010.94
2022-11-01T14:23:42.406Z,98000.94
2022-11-01T14:25:45.499Z,98003.56
2022-11-01T14:28:11.627Z,98010.81
2022-11-01T14:30:17.371Z,98004.03
2022-11-01T14:32:23.360Z,97996.22
2022-11-01T14:34:33.069Z,97991.91
2022-11-01T14:36:41.019Z,97997.31
2022-11-01T14:38:54.043Z,98000.81
2022-11-01T14:40:58.949Z,98000.25
2022-11-01T14:43:13.288Z,97992.72
2022-11-01T14:45:28.035Z,97987.81
2022-11-01T14:47:41.317Z,97994.41
2022-11-01T14:49:44.973Z,97992.50
2022-11-01T14:52:00.453Z,97990.88
2022-11-01T14:54:18.235Z,97995.66
2022-11-01T14:56:31.032Z,97995.66
2022-11-01T14:58:34.024Z,97997.03
2022-11-01T15:00:37.038Z,98006.50
2022-11-01T15:02:40.027Z,98012.72
2022-11-01T15:04:48.024Z,98001.97
2022-11-01T15:06:52.642Z,97996.00
2022-11-01T15:09:05.298Z,98001.38
2022-11-01T15:11:08.633Z,97997.91
2022-11-01T15:13:16.053Z,97992.50
2022-11-01T15:15:28.065Z,98005.19
2022-11-01T15:17:33.239Z,98006.78
2022-11-01T15:19:38.127Z,98005.19
2022-11-01T15:21:47.421Z,98009.47
2022-11-01T15:23:53.464Z,98016.78
2022-11-01T15:25:58.870Z,98000.81
2022-11-01T15:28:01.668Z,98013.28
2022-11-01T15:30:05.882Z,98009.22
2022-11-01T15:32:22.990Z,98002.44
2022-11-01T15:34:28.432Z,98012.13
2022-11-01T15:36:37.073Z,98005.84
2022-11-01T15:38:57.499Z,98013.16
2022-11-01T15:41:19.042Z,98010.19
2022-11-01T15:43:29.683Z,98006.44
2022-11-01T15:45:34.732Z,98000.69
2022-11-01T15:47:42.194Z,98007.16
2022-11-01T15:49:56.125Z,98007.34
2022-11-01T15:52:03.039Z,98011.66
2022-11-01T15:54:32.066Z,98003.25
2022-11-01T15:56:43.829Z,98002.97
2022-11-01T15:59:01.636Z,98001.34
2022-11-01T16:01:14.629Z,98002.31
2022-11-01T16:03:23.775Z,97998.81
2022-11-01T16:05:34.671Z,97997.44
2022-11-01T16:07:37.471Z,97999.25
2022-11-01T16:09:50.432Z,97996.03
2022-11-01T16:11:57.702Z,97990.28
2022-11-01T16:14:15.248Z,97995.63
2022-11-01T16:16:18.080Z,97987.81
2022-11-01T16:18:24.523Z,98006.94
2022-11-01T16:20:33.134Z,98009.88
2022-11-01T16:22:47.569Z,98001.69
2022-11-01T16:24:50.297Z,98001.91
2022-11-01T16:27:03.928Z,98007.28
2022-11-01T16:29:06.725Z,98006.22
2022-11-01T16:31:20.795Z,97999.41
2022-11-01T16:33:44.927Z,98002.63
2022-11-01T16:35:49.848Z,98006.66
2022-11-01T16:37:52.686Z,98000.94
2022-11-01T16:39:56.087Z,97993.34
2022-11-01T16:41:59.717Z,97991.75
2022-11-01T16:44:12.562Z,97991.16
2022-11-01T16:46:15.613Z,97989.84
2022-11-01T16:48:27.647Z,97993.06
2022-11-01T16:50:31.681Z,97995.47
2022-11-01T16:52:35.698Z,97988.16
2022-11-01T16:54:38.602Z,98000.28
2022-11-01T16:56:52.274Z,97995.41
2022-11-01T16:59:04.592Z,98001.31
2022-11-01T17:01:19.397Z,98003.50
2022-11-01T17:03:23.135Z,97993.13
2022-11-01T17:05:25.937Z,98006.34
2022-11-01T17:07:28.810Z,98000.94
2022-11-01T17:09:33.424Z,98003.34
2022-11-01T17:11:36.033Z,97999.84
2022-11-01T17:13:38.811Z,97994.84
2022-11-01T17:15:49.607Z,97999.75
2022-11-01T17:17:52.816Z,98014.06
2022-11-01T17:20:00.359Z,98003.75
2022-11-01T17:22:07.664Z,98007.25
2022-11-01T17:24:10.542Z,98003.47
2022-11-01T17:26:15.982Z,98006.38
2022-11-01T17:28:19.721Z,98004.50
2022-11-01T17:30:22.743Z,98003.69
2022-11-01T17:32:25.491Z,98005.31
2022-11-01T17:34:29.161Z,98003.41
2022-11-01T17:36:32.000Z,98004.00
2022-11-01T17:38:37.755Z,98007.78
2022-11-01T17:40:41.507Z,98006.91
2022-11-01T17:42:44.155Z,98007.50
2022-11-01T17:44:46.831Z,97995.28
2022-11-01T17:46:49.503Z,98001.81
2022-11-01T17:48:54.974Z,98001.81
2022-11-01T17:51:01.160Z,98006.00
2022-11-01T17:53:04.246Z,98001.50
2022-11-01T17:55:08.020Z,97991.78
2022-11-01T17:57:11.032Z,97996.91
2022-11-01T17:59:14.070Z,97995.00
2022-11-01T18:01:17.929Z,98002.22
2022-11-01T18:03:21.083Z,98000.91
2022-11-01T18:05:23.859Z,97996.59
2022-11-01T18:07:35.851Z,97993.28
2022-11-01T18:09:39.628Z,97992.22
2022-11-01T18:11:54.332Z,97998.69
2022-11-01T18:14:03.960Z,97987.59
2022-11-01T18:16:29.118Z,97986.78
2022-11-01T18:18:43.123Z,97994.13
2022-11-01T18:21:07.531Z,97993.00
2022-11-01T18:23:15.066Z,97998.41
2022-11-01T18:25:39.633Z,97995.41
2022-11-01T18:27:42.290Z,97986.50
2022-11-01T18:29:48.881Z,97985.41
2022-11-01T18:32:03.265Z,97994.91
2022-11-01T18:34:24.299Z,97988.78
2022-11-01T18:36:33.904Z,97997.91
2022-11-01T18:38:53.500Z,97983.59
2022-11-01T18:41:03.049Z,97987.41
2022-11-01T18:43:08.279Z,97987.47
2022-11-01T18:45:30.978Z,97988.56
2022-11-01T18:47:42.622Z,97986.75
2022-11-01T18:49:46.539Z,97991.63
2022-11-01T18:51:50.401Z,97983.63
2022-11-01T18:54:03.568Z,97987.13
2022-11-01T18:56:32.334Z,97982.81
2022-11-01T18:58:37.861Z,97975.59
2022-11-01T19:00:41.158Z,97977.50
2022-11-01T19:02:43.827Z,97968.66
2022-11-01T19:04:47.588Z,97973.53
2022-11-01T19:06:50.553Z,97970.31
2022-11-01T19:08:57.155Z,97956.91
2022-11-01T19:11:00.257Z,97977.81
2022-11-01T19:13:02.875Z,97966.47
2022-11-01T19:15:21.053Z,97962.91
2022-11-01T19:17:26.277Z,97964.50
2022-11-01T19:19:29.259Z,97958.88
2022-11-01T19:21:35.916Z,97970.50
2022-11-01T19:23:58.026Z,97966.72
2022-11-01T19:26:01.785Z,97967.00
2022-11-01T19:28:13.891Z,97960.56
2022-11-01T19:30:28.757Z,97954.56
2022-11-01T19:32:31.464Z,97959.97
2022-11-01T19:34:37.534Z,97959.97
2022-11-01T19:36:44.744Z,97961.59
2022-11-01T19:38:48.587Z,97962.09
2022-11-01T19:40:53.232Z,97961.16
2022-11-01T19:42:57.885Z,97958.38
2022-11-01T19:45:25.361Z,97952.97
2022-11-01T19:47:42.121Z,97951.16
2022-11-01T19:49:44.816Z,97952.75
2022-11-01T19:51:52.410Z,97959.19
2022-11-01T19:53:55.232Z,97948.97
2022-11-01T19:56:03.562Z,97951.38
2022-11-01T19:58:26.937Z,97941.06
2022-11-01T20:00:29.837Z,97929.81
2022-11-01T20:02:32.672Z,97940.84
2022-11-01T20:04:36.240Z,97936.34
2022-11-01T20:06:54.058Z,97939.63
2022-11-01T20:09:24.134Z,97938.88
2022-11-01T20:11:26.776Z,97939.69
2022-11-01T20:13:29.447Z,97942.38
2022-11-01T20:15:32.294Z,97931.56
2022-11-01T20:17:36.903Z,97935.63
2022-11-01T20:19:40.101Z,97923.19
2022-11-01T20:21:42.688Z,97920.78
2022-11-01T20:23:45.252Z,97916.84
2022-11-01T20:25:47.909Z,97932.75
2022-11-01T20:27:50.697Z,97924.44
2022-11-01T20:29:53.302Z,97910.22
2022-11-01T20:31:56.069Z,97928.75
2022-11-01T20:33:59.009Z,97921.44
2022-11-01T20:36:08.223Z,97916.34
2022-11-01T20:38:14.013Z,97912.97
2022-11-01T20:40:17.367Z,97920.34
2022-11-01T20:42:19.942Z,97914.47
2022-11-01T20:44:22.598Z,97913.34
2022-11-01T20:46:25.530Z,97905.97
2022-11-01T20:48:28.107Z,97907.94
2022-11-01T20:50:30.732Z,97904.66
2022-11-01T20:52:39.711Z,97900.88
2022-11-01T20:54:42.846Z,97908.38
2022-11-01T20:56:45.653Z,97907.06
2022-11-01T20:58:48.402Z,97897.94
2022-11-01T21:00:53.808Z,97909.63
2022-11-01T21:02:58.062Z,97898.31
2022-11-01T21:05:11.925Z,97892.84
2022-11-01T21:07:14.908Z,97890.63
2022-11-01T21:09:35.040Z,97897.22
2022-11-01T21:11:44.255Z,97887.59
2022-11-01T21:13:47.331Z,97886.69
2022-11-01T21:15:50.961Z,97884.88
2022-11-01T21:18:08.505Z,97892.25
2022-11-01T21:20:23.259Z,97891.75
2022-11-01T21:22:25.932Z,97886.88
2022-11-01T21:24:30.161Z,97883.84
2022-11-01T21:26:36.085Z,97881.09
2022-11-01T21:28:46.851Z,97892.47
2022-11-01T21:30:49.452Z,97881.66
2022-11-01T21:32:52.079Z,97869.56
2022-11-01T21:34:55.075Z,97878.91
2022-11-01T21:37:01.043Z,97884.31
2022-11-01T21:39:14.225Z,97882.69
2022-11-01T21:41:44.447Z,97873.56
2022-11-01T21:43:48.524Z,97887.81
2022-11-01T21:45:51.495Z,97885.09
2022-11-01T21:47:54.434Z,97882.94
2022-11-01T21:49:57.494Z,97873.44
2022-11-01T21:52:02.529Z,97875.38
2022-11-01T21:54:05.488Z,97874.00
2022-11-01T21:56:08.426Z,97864.94
2022-11-01T21:58:11.033Z,97872.16
2022-11-01T22:00:15.676Z,97877.88
2022-11-01T22:02:19.073Z,97867.38
2022-11-01T22:04:24.721Z,97872.56
2022-11-01T22:06:30.468Z,97861.75
2022-11-01T22:08:33.142Z,97853.06
2022-11-01T22:10:35.721Z,97864.06
2022-11-01T22:12:38.372Z,97855.50
2022-11-01T22:14:40.961Z,97859.69
2022-11-01T22:16:43.534Z,97853.22
2022-11-01T22:18:46.208Z,97853.41
2022-11-01T22:20:48.815Z,97854.28
2022-11-01T22:22:51.517Z,97847.88
2022-11-01T22:24:54.317Z,97856.47
2022-11-01T22:26:57.015Z,97849.41
2022-11-01T22:28:59.697Z,97853.13
2022-11-01T22:31:02.438Z,97850.28
2022-11-01T22:33:06.335Z,97844.00
2022-11-01T22:35:09.487Z,97853.78
2022-11-01T22:37:15.067Z,97848.38
2022-11-01T22:39:25.246Z,97842.97
2022-11-01T22:41:32.799Z,97842.47
2022-11-01T22:43:39.237Z,97837.28
2022-11-01T22:45:41.935Z,97837.28
2022-11-01T22:47:47.000Z,97842.19
2022-11-01T22:49:53.937Z,97839.19
2022-11-01T22:51:58.346Z,97827.66
2022-11-01T22:54:01.792Z,97824.97
2022-11-01T22:56:05.056Z,97830.59
2022-11-01T22:58:36.070Z,97830.34
2022-11-01T23:00:41.603Z,97831.47
2022-11-01T23:02:44.645Z,97831.56
2022-11-01T23:04:47.468Z,97834.03
2022-11-01T23:06:50.963Z,97836.94
2022-11-01T23:08:57.360Z,97827.22
2022-11-01T23:11:02.338Z,97843.31
2022-11-01T23:13:33.846Z,97830.31
2022-11-01T23:15:37.172Z,97826.72
2022-11-01T23:17:39.805Z,97829.13
2022-11-01T23:19:42.480Z,97818.94
2022-11-01T23:21:45.295Z,97827.81
2022-11-01T23:23:48.590Z,97828.09
2022-11-01T23:25:53.484Z,97827.69
2022-11-01T23:27:56.565Z,97826.38
2022-11-01T23:30:01.600Z,97822.88
2022-11-01T23:32:06.713Z,97818.59
2022-11-01T23:34:10.830Z,97820.47
2022-11-01T23:36:17.007Z,97830.75
2022-11-01T23:38:47.914Z,97822.66
2022-11-01T23:40:53.863Z,97828.28
2022-11-01T23:42:56.563Z,97830.38
2022-11-01T23:44:59.171Z,97833.44
2022-11-01T23:47:35.443Z,97819.66
2022-11-01T23:49:38.753Z,97817.56
2022-11-01T23:51:41.730Z,97815.88
2022-11-01T23:53:47.393Z,97810.78
2022-11-01T23:55:53.821Z,97802.41
2022-11-01T23:58:00.386Z,97804.78
